sensor_id;sensor_type;location;lat;lon;timestamp;P1;durP1;ratioP1;P2;durP2;ratioP2
70138;SDS011;57507;43.056;0.150;2022-09-03T00:00:15;1.50;;;0.68;;
70138;SDS011;57507;43.056;0.150;2022-09-03T00:02:43;0.60;;;0.55;;
70138;SDS011;57507;43.056;0.150;2022-09-03T00:07:53;1.35;;;0.65;;
70138;SDS011;57507;43.056;0.150;2022-09-03T00:10:24;1.80;;;0.80;;
70138;SDS011;57507;43.056;0.150;2022-09-03T00:12:55;1.02;;;0.70;;
70138;SDS011;57507;43.056;0.150;2022-09-03T00:15:24;1.65;;;0.60;;
70138;SDS011;57507;43.056;0.150;2022-09-03T00:17:52;1.13;;;0.52;;
70138;SDS011;57507;43.056;0.150;2022-09-03T00:20:30;1.08;;;0.70;;
70138;SDS011;57507;43.056;0.150;2022-09-03T00:22:59;4.05;;;0.60;;
70138;SDS011;57507;43.056;0.150;2022-09-03T00:27:56;1.50;;;0.40;;
70138;SDS011;57507;43.056;0.150;2022-09-03T00:30:23;1.02;;;0.50;;
70138;SDS011;57507;43.056;0.150;2022-09-03T00:37:52;1.08;;;0.70;;
70138;SDS011;57507;43.056;0.150;2022-09-03T00:41:03;0.60;;;0.52;;
70138;SDS011;57507;43.056;0.150;2022-09-03T00:43:17;2.22;;;0.80;;
70138;SDS011;57507;43.056;0.150;2022-09-03T00:48:18;0.85;;;0.85;;
70138;SDS011;57507;43.056;0.150;2022-09-03T00:53:19;0.68;;;0.57;;
70138;SDS011;57507;43.056;0.150;2022-09-03T01:00:49;0.75;;;0.55;;
70138;SDS011;57507;43.056;0.150;2022-09-03T01:06:06;2.50;;;0.85;;
70138;SDS011;57507;43.056;0.150;2022-09-03T01:11:08;1.50;;;0.65;;
70138;SDS011;57507;43.056;0.150;2022-09-03T01:13:43;1.15;;;0.50;;
70138;SDS011;57507;43.056;0.150;2022-09-03T01:21:45;1.42;;;0.82;;
70138;SDS011;57507;43.056;0.150;2022-09-03T01:32:14;3.58;;;0.88;;
70138;SDS011;57507;43.056;0.150;2022-09-03T01:39:57;1.52;;;0.65;;
70138;SDS011;57507;43.056;0.150;2022-09-03T02:00:16;2.03;;;0.60;;
70138;SDS011;57507;43.056;0.150;2022-09-03T02:02:45;0.75;;;0.60;;
70138;SDS011;57507;43.056;0.150;2022-09-03T02:05:17;1.50;;;0.52;;
70138;SDS011;57507;43.056;0.150;2022-09-03T02:07:44;2.08;;;0.60;;
70138;SDS011;57507;43.056;0.150;2022-09-03T02:10:19;2.25;;;0.73;;
70138;SDS011;57507;43.056;0.150;2022-09-03T02:12:51;2.10;;;0.55;;
70138;SDS011;57507;43.056;0.150;2022-09-03T02:15:20;1.52;;;0.68;;
70138;SDS011;57507;43.056;0.150;2022-09-03T02:17:48;1.23;;;0.60;;
70138;SDS011;57507;43.056;0.150;2022-09-03T02:20:16;2.47;;;0.60;;
70138;SDS011;57507;43.056;0.150;2022-09-03T02:22:44;0.82;;;0.73;;
70138;SDS011;57507;43.056;0.150;2022-09-03T02:25:12;2.83;;;0.70;;
70138;SDS011;57507;43.056;0.150;2022-09-03T02:27:39;0.73;;;0.65;;
70138;SDS011;57507;43.056;0.150;2022-09-03T02:30:06;0.50;;;0.50;;
70138;SDS011;57507;43.056;0.150;2022-09-03T02:32:33;1.10;;;0.70;;
70138;SDS011;57507;43.056;0.150;2022-09-03T02:34:59;2.58;;;0.60;;
70138;SDS011;57507;43.056;0.150;2022-09-03T02:37:26;2.83;;;0.68;;
70138;SDS011;57507;43.056;0.150;2022-09-03T02:39:53;2.08;;;0.52;;
70138;SDS011;57507;43.056;0.150;2022-09-03T02:42:19;1.80;;;0.60;;
70138;SDS011;57507;43.056;0.150;2022-09-03T02:44:51;1.38;;;0.60;;
70138;SDS011;57507;43.056;0.150;2022-09-03T02:47:19;0.90;;;0.47;;
70138;SDS011;57507;43.056;0.150;2022-09-03T02:49:48;1.48;;;0.57;;
70138;SDS011;57507;43.056;0.150;2022-09-03T02:52:15;1.15;;;0.55;;
70138;SDS011;57507;43.056;0.150;2022-09-03T02:54:41;1.73;;;0.50;;
70138;SDS011;57507;43.056;0.150;2022-09-03T02:57:13;1.50;;;0.68;;
70138;SDS011;57507;43.056;0.150;2022-09-03T02:59:41;1.38;;;0.55;;
70138;SDS011;57507;43.056;0.150;2022-09-03T03:02:09;0.95;;;0.65;;
70138;SDS011;57507;43.056;0.150;2022-09-03T03:04:36;0.73;;;0.60;;
70138;SDS011;57507;43.056;0.150;2022-09-03T03:07:02;1.20;;;0.60;;
70138;SDS011;57507;43.056;0.150;2022-09-03T03:09:29;2.58;;;0.57;;
70138;SDS011;57507;43.056;0.150;2022-09-03T03:11:55;0.85;;;0.63;;
70138;SDS011;57507;43.056;0.150;2022-09-03T03:14:22;1.77;;;0.68;;
70138;SDS011;57507;43.056;0.150;2022-09-03T03:16:49;2.17;;;0.70;;
70138;SDS011;57507;43.056;0.150;2022-09-03T03:19:16;1.45;;;0.57;;
70138;SDS011;57507;43.056;0.150;2022-09-03T03:21:42;1.05;;;0.60;;
70138;SDS011;57507;43.056;0.150;2022-09-03T03:24:09;0.68;;;0.50;;
70138;SDS011;57507;43.056;0.150;2022-09-03T03:26:36;1.25;;;0.60;;
70138;SDS011;57507;43.056;0.150;2022-09-03T03:29:03;1.63;;;0.60;;
70138;SDS011;57507;43.056;0.150;2022-09-03T03:31:30;1.17;;;0.75;;
70138;SDS011;57507;43.056;0.150;2022-09-03T03:33:58;0.77;;;0.77;;
70138;SDS011;57507;43.056;0.150;2022-09-03T03:36:26;1.10;;;0.55;;
70138;SDS011;57507;43.056;0.150;2022-09-03T03:38:54;1.48;;;0.60;;
70138;SDS011;57507;43.056;0.150;2022-09-03T03:41:22;1.65;;;0.68;;
70138;SDS011;57507;43.056;0.150;2022-09-03T03:43:55;0.55;;;0.50;;
70138;SDS011;57507;43.056;0.150;2022-09-03T03:48:49;2.83;;;0.70;;
70138;SDS011;57507;43.056;0.150;2022-09-03T03:51:16;0.70;;;0.70;;
70138;SDS011;57507;43.056;0.150;2022-09-03T03:53:43;1.63;;;0.60;;
70138;SDS011;57507;43.056;0.150;2022-09-03T03:56:10;0.70;;;0.50;;
70138;SDS011;57507;43.056;0.150;2022-09-03T03:58:38;1.55;;;0.70;;
70138;SDS011;57507;43.056;0.150;2022-09-03T04:01:12;0.70;;;0.60;;
70138;SDS011;57507;43.056;0.150;2022-09-03T04:03:40;1.25;;;0.77;;
70138;SDS011;57507;43.056;0.150;2022-09-03T04:06:07;2.20;;;0.80;;
70138;SDS011;57507;43.056;0.150;2022-09-03T04:08:34;0.47;;;0.47;;
70138;SDS011;57507;43.056;0.150;2022-09-03T04:11:04;2.35;;;0.80;;
70138;SDS011;57507;43.056;0.150;2022-09-03T04:13:31;2.88;;;0.60;;
70138;SDS011;57507;43.056;0.150;2022-09-03T04:16:02;1.17;;;0.70;;
70138;SDS011;57507;43.056;0.150;2022-09-03T04:18:30;2.58;;;0.77;;
70138;SDS011;57507;43.056;0.150;2022-09-03T04:21:16;2.20;;;0.70;;
70138;SDS011;57507;43.056;0.150;2022-09-03T04:23:43;0.55;;;0.47;;
70138;SDS011;57507;43.056;0.150;2022-09-03T04:26:12;2.33;;;0.60;;
70138;SDS011;57507;43.056;0.150;2022-09-03T04:28:39;3.58;;;0.90;;
70138;SDS011;57507;43.056;0.150;2022-09-03T04:31:07;1.35;;;0.70;;
70138;SDS011;57507;43.056;0.150;2022-09-03T04:33:34;1.25;;;0.80;;
70138;SDS011;57507;43.056;0.150;2022-09-03T04:36:03;1.80;;;0.70;;
70138;SDS011;57507;43.056;0.150;2022-09-03T04:38:30;0.75;;;0.73;;
70138;SDS011;57507;43.056;0.150;2022-09-03T04:40:57;0.88;;;0.70;;
70138;SDS011;57507;43.056;0.150;2022-09-03T04:43:27;0.90;;;0.68;;
70138;SDS011;57507;43.056;0.150;2022-09-03T04:46:00;0.90;;;0.70;;
70138;SDS011;57507;43.056;0.150;2022-09-03T04:48:28;1.00;;;0.70;;
70138;SDS011;57507;43.056;0.150;2022-09-03T04:51:00;1.45;;;0.80;;
70138;SDS011;57507;43.056;0.150;2022-09-03T04:53:29;2.35;;;0.80;;
70138;SDS011;57507;43.056;0.150;2022-09-03T04:55:57;1.55;;;0.82;;
70138;SDS011;57507;43.056;0.150;2022-09-03T04:58:23;0.65;;;0.50;;
70138;SDS011;57507;43.056;0.150;2022-09-03T05:00:50;2.55;;;0.47;;
70138;SDS011;57507;43.056;0.150;2022-09-03T05:03:17;1.45;;;0.55;;
70138;SDS011;57507;43.056;0.150;2022-09-03T05:05:55;0.88;;;0.70;;
70138;SDS011;57507;43.056;0.150;2022-09-03T05:08:22;1.58;;;0.70;;
70138;SDS011;57507;43.056;0.150;2022-09-03T05:10:56;0.63;;;0.60;;
70138;SDS011;57507;43.056;0.150;2022-09-03T05:13:24;0.90;;;0.70;;
70138;SDS011;57507;43.056;0.150;2022-09-03T05:15:51;0.68;;;0.68;;
70138;SDS011;57507;43.056;0.150;2022-09-03T05:18:18;2.28;;;0.70;;
70138;SDS011;57507;43.056;0.150;2022-09-03T05:20:45;1.75;;;0.65;;
70138;SDS011;57507;43.056;0.150;2022-09-03T05:23:11;1.40;;;0.63;;
70138;SDS011;57507;43.056;0.150;2022-09-03T05:25:38;0.50;;;0.50;;
70138;SDS011;57507;43.056;0.150;2022-09-03T05:28:05;1.10;;;0.73;;
70138;SDS011;57507;43.056;0.150;2022-09-03T05:30:31;2.10;;;0.60;;
70138;SDS011;57507;43.056;0.150;2022-09-03T05:32:58;1.63;;;0.73;;
70138;SDS011;57507;43.056;0.150;2022-09-03T05:35:25;1.08;;;0.70;;
70138;SDS011;57507;43.056;0.150;2022-09-03T05:37:53;0.65;;;0.65;;
70138;SDS011;57507;43.056;0.150;2022-09-03T05:40:20;2.55;;;0.52;;
70138;SDS011;57507;43.056;0.150;2022-09-03T05:42:46;1.52;;;0.60;;
70138;SDS011;57507;43.056;0.150;2022-09-03T05:45:13;1.15;;;0.50;;
70138;SDS011;57507;43.056;0.150;2022-09-03T05:47:39;0.77;;;0.65;;
70138;SDS011;57507;43.056;0.150;2022-09-03T05:50:06;1.88;;;0.63;;
70138;SDS011;57507;43.056;0.150;2022-09-03T05:52:35;1.13;;;0.65;;
70138;SDS011;57507;43.056;0.150;2022-09-03T05:55:02;1.77;;;0.70;;
70138;SDS011;57507;43.056;0.150;2022-09-03T05:57:29;0.65;;;0.60;;
70138;SDS011;57507;43.056;0.150;2022-09-03T05:59:55;2.58;;;0.60;;
70138;SDS011;57507;43.056;0.150;2022-09-03T06:02:22;0.90;;;0.73;;
70138;SDS011;57507;43.056;0.150;2022-09-03T06:04:49;1.90;;;0.70;;
70138;SDS011;57507;43.056;0.150;2022-09-03T06:07:15;0.82;;;0.60;;
70138;SDS011;57507;43.056;0.150;2022-09-03T06:09:42;1.15;;;0.80;;
70138;SDS011;57507;43.056;0.150;2022-09-03T06:12:09;0.65;;;0.65;;
70138;SDS011;57507;43.056;0.150;2022-09-03T06:14:35;0.90;;;0.38;;
70138;SDS011;57507;43.056;0.150;2022-09-03T06:17:03;0.90;;;0.68;;
70138;SDS011;57507;43.056;0.150;2022-09-03T06:19:29;0.60;;;0.60;;
70138;SDS011;57507;43.056;0.150;2022-09-03T06:21:56;0.80;;;0.70;;
70138;SDS011;57507;43.056;0.150;2022-09-03T06:24:22;1.33;;;0.82;;
70138;SDS011;57507;43.056;0.150;2022-09-03T06:26:51;1.20;;;0.60;;
70138;SDS011;57507;43.056;0.150;2022-09-03T06:29:18;2.60;;;0.88;;
70138;SDS011;57507;43.056;0.150;2022-09-03T06:31:44;0.82;;;0.70;;
70138;SDS011;57507;43.056;0.150;2022-09-03T06:34:12;1.40;;;0.70;;
70138;SDS011;57507;43.056;0.150;2022-09-03T06:36:42;3.00;;;0.77;;
70138;SDS011;57507;43.056;0.150;2022-09-03T06:39:09;1.23;;;0.60;;
70138;SDS011;57507;43.056;0.150;2022-09-03T06:41:36;1.38;;;0.57;;
70138;SDS011;57507;43.056;0.150;2022-09-03T06:44:04;4.60;;;0.80;;
70138;SDS011;57507;43.056;0.150;2022-09-03T06:46:36;2.95;;;0.75;;
70138;SDS011;57507;43.056;0.150;2022-09-03T06:49:09;1.63;;;0.80;;
70138;SDS011;57507;43.056;0.150;2022-09-03T06:51:36;1.60;;;0.73;;
70138;SDS011;57507;43.056;0.150;2022-09-03T06:54:04;1.13;;;0.70;;
70138;SDS011;57507;43.056;0.150;2022-09-03T06:56:32;2.28;;;0.70;;
70138;SDS011;57507;43.056;0.150;2022-09-03T06:59:02;0.90;;;0.70;;
70138;SDS011;57507;43.056;0.150;2022-09-03T07:01:29;0.93;;;0.57;;
70138;SDS011;57507;43.056;0.150;2022-09-03T07:03:57;0.90;;;0.70;;
70138;SDS011;57507;43.056;0.150;2022-09-03T07:06:25;0.95;;;0.60;;
70138;SDS011;57507;43.056;0.150;2022-09-03T07:08:52;1.05;;;0.60;;
70138;SDS011;57507;43.056;0.150;2022-09-03T07:11:20;2.25;;;0.70;;
70138;SDS011;57507;43.056;0.150;2022-09-03T07:13:50;0.75;;;0.60;;
70138;SDS011;57507;43.056;0.150;2022-09-03T07:16:27;2.38;;;0.60;;
70138;SDS011;57507;43.056;0.150;2022-09-03T07:18:54;0.70;;;0.70;;
70138;SDS011;57507;43.056;0.150;2022-09-03T07:21:22;0.80;;;0.60;;
70138;SDS011;57507;43.056;0.150;2022-09-03T07:23:49;1.33;;;0.60;;
70138;SDS011;57507;43.056;0.150;2022-09-03T07:26:26;1.92;;;0.65;;
70138;SDS011;57507;43.056;0.150;2022-09-03T07:28:54;1.63;;;0.68;;
70138;SDS011;57507;43.056;0.150;2022-09-03T07:33:53;1.27;;;0.70;;
70138;SDS011;57507;43.056;0.150;2022-09-03T07:36:20;0.85;;;0.65;;
70138;SDS011;57507;43.056;0.150;2022-09-03T07:38:47;0.70;;;0.68;;
70138;SDS011;57507;43.056;0.150;2022-09-03T07:41:13;1.70;;;0.95;;
70138;SDS011;57507;43.056;0.150;2022-09-03T07:43:41;0.68;;;0.68;;
70138;SDS011;57507;43.056;0.150;2022-09-03T07:46:10;1.52;;;0.70;;
70138;SDS011;57507;43.056;0.150;2022-09-03T07:48:38;1.40;;;0.70;;
70138;SDS011;57507;43.056;0.150;2022-09-03T07:51:05;3.25;;;0.88;;
70138;SDS011;57507;43.056;0.150;2022-09-03T07:53:32;1.27;;;0.90;;
70138;SDS011;57507;43.056;0.150;2022-09-03T07:56:00;2.92;;;0.80;;
70138;SDS011;57507;43.056;0.150;2022-09-03T07:58:33;0.88;;;0.50;;
70138;SDS011;57507;43.056;0.150;2022-09-03T08:01:10;0.77;;;0.60;;
70138;SDS011;57507;43.056;0.150;2022-09-03T08:03:37;1.02;;;0.60;;
70138;SDS011;57507;43.056;0.150;2022-09-03T08:06:05;2.38;;;0.93;;
70138;SDS011;57507;43.056;0.150;2022-09-03T08:08:32;2.70;;;0.70;;
70138;SDS011;57507;43.056;0.150;2022-09-03T08:11:06;1.40;;;0.80;;
70138;SDS011;57507;43.056;0.150;2022-09-03T08:16:07;1.35;;;0.75;;
70138;SDS011;57507;43.056;0.150;2022-09-03T08:18:34;1.02;;;0.70;;
70138;SDS011;57507;43.056;0.150;2022-09-03T08:21:08;2.25;;;1.15;;
70138;SDS011;57507;43.056;0.150;2022-09-03T08:23:36;1.25;;;0.70;;
70138;SDS011;57507;43.056;0.150;2022-09-03T08:26:03;2.45;;;0.60;;
70138;SDS011;57507;43.056;0.150;2022-09-03T08:28:30;1.23;;;0.50;;
70138;SDS011;57507;43.056;0.150;2022-09-03T08:31:14;1.98;;;0.80;;
70138;SDS011;57507;43.056;0.150;2022-09-03T08:33:42;1.55;;;0.52;;
70138;SDS011;57507;43.056;0.150;2022-09-03T08:36:13;1.42;;;0.40;;
70138;SDS011;57507;43.056;0.150;2022-09-03T08:38:41;0.32;;;0.30;;
70138;SDS011;57507;43.056;0.150;2022-09-03T08:41:11;0.75;;;0.40;;
70138;SDS011;57507;43.056;0.150;2022-09-03T08:46:08;0.50;;;0.30;;
70138;SDS011;57507;43.056;0.150;2022-09-03T08:48:35;1.85;;;0.50;;
70138;SDS011;57507;43.056;0.150;2022-09-03T08:51:01;0.73;;;0.40;;
70138;SDS011;57507;43.056;0.150;2022-09-03T08:53:48;0.77;;;0.55;;
70138;SDS011;57507;43.056;0.150;2022-09-03T08:56:29;2.08;;;0.52;;
70138;SDS011;57507;43.056;0.150;2022-09-03T08:58:56;0.98;;;0.47;;
70138;SDS011;57507;43.056;0.150;2022-09-03T09:01:43;1.40;;;0.52;;
70138;SDS011;57507;43.056;0.150;2022-09-03T09:06:44;2.72;;;0.55;;
70138;SDS011;57507;43.056;0.150;2022-09-03T09:11:45;1.60;;;0.60;;
70138;SDS011;57507;43.056;0.150;2022-09-03T09:14:16;1.48;;;0.52;;
70138;SDS011;57507;43.056;0.150;2022-09-03T09:17:00;0.88;;;0.50;;
70138;SDS011;57507;43.056;0.150;2022-09-03T09:22:16;0.80;;;0.50;;
70138;SDS011;57507;43.056;0.150;2022-09-03T09:24:47;3.05;;;0.60;;
70138;SDS011;57507;43.056;0.150;2022-09-03T09:27:14;0.43;;;0.38;;
70138;SDS011;57507;43.056;0.150;2022-09-03T09:29:42;0.82;;;0.60;;
70138;SDS011;57507;43.056;0.150;2022-09-03T09:32:11;0.77;;;0.52;;
70138;SDS011;57507;43.056;0.150;2022-09-03T09:34:38;1.17;;;0.57;;
70138;SDS011;57507;43.056;0.150;2022-09-03T09:37:07;0.93;;;0.50;;
70138;SDS011;57507;43.056;0.150;2022-09-03T09:39:35;1.00;;;0.50;;
70138;SDS011;57507;43.056;0.150;2022-09-03T09:44:29;1.20;;;0.60;;
70138;SDS011;57507;43.056;0.150;2022-09-03T09:47:56;1.15;;;0.40;;
70138;SDS011;57507;43.056;0.150;2022-09-03T09:49:56;1.38;;;0.32;;
70138;SDS011;57507;43.056;0.150;2022-09-03T09:52:24;0.77;;;0.40;;
70138;SDS011;57507;43.056;0.150;2022-09-03T09:54:53;0.75;;;0.45;;
70138;SDS011;57507;43.056;0.150;2022-09-03T09:57:32;1.67;;;0.63;;
70138;SDS011;57507;43.056;0.150;2022-09-03T10:00:06;0.73;;;0.40;;
70138;SDS011;57507;43.056;0.150;2022-09-03T10:02:35;0.95;;;0.60;;
70138;SDS011;57507;43.056;0.150;2022-09-03T10:08:26;0.77;;;0.50;;
70138;SDS011;57507;43.056;0.150;2022-09-03T10:10:51;2.10;;;0.40;;
70138;SDS011;57507;43.056;0.150;2022-09-03T10:13:36;0.45;;;0.40;;
70138;SDS011;57507;43.056;0.150;2022-09-03T10:16:24;1.10;;;0.40;;
70138;SDS011;57507;43.056;0.150;2022-09-03T10:24:13;1.95;;;0.60;;
70138;SDS011;57507;43.056;0.150;2022-09-03T10:26:42;2.20;;;0.52;;
70138;SDS011;57507;43.056;0.150;2022-09-03T10:29:10;0.57;;;0.30;;
70138;SDS011;57507;43.056;0.150;2022-09-03T10:31:43;1.35;;;0.40;;
70138;SDS011;57507;43.056;0.150;2022-09-03T10:34:17;0.47;;;0.47;;
70138;SDS011;57507;43.056;0.150;2022-09-03T10:47:06;0.95;;;0.28;;
70138;SDS011;57507;43.056;0.150;2022-09-03T10:52:18;0.28;;;0.28;;
70138;SDS011;57507;43.056;0.150;2022-09-03T10:59:55;1.55;;;0.40;;
70138;SDS011;57507;43.056;0.150;2022-09-03T11:02:34;0.30;;;0.30;;
70138;SDS011;57507;43.056;0.150;2022-09-03T11:05:10;0.50;;;0.30;;
70138;SDS011;57507;43.056;0.150;2022-09-03T11:07:47;0.55;;;0.30;;
70138;SDS011;57507;43.056;0.150;2022-09-03T11:10:22;0.85;;;0.50;;
70138;SDS011;57507;43.056;0.150;2022-09-03T11:15:25;0.50;;;0.40;;
70138;SDS011;57507;43.056;0.150;2022-09-03T11:21:04;0.77;;;0.50;;
70138;SDS011;57507;43.056;0.150;2022-09-03T11:23:32;0.93;;;0.50;;
70138;SDS011;57507;43.056;0.150;2022-09-03T11:26:05;2.95;;;0.60;;
70138;SDS011;57507;43.056;0.150;2022-09-03T11:33:50;1.17;;;0.47;;
70138;SDS011;57507;43.056;0.150;2022-09-03T11:36:25;1.50;;;0.45;;
70138;SDS011;57507;43.056;0.150;2022-09-03T11:38:54;0.60;;;0.50;;
70138;SDS011;57507;43.056;0.150;2022-09-03T11:41:24;1.08;;;0.50;;
70138;SDS011;57507;43.056;0.150;2022-09-03T11:43:51;0.40;;;0.30;;
70138;SDS011;57507;43.056;0.150;2022-09-03T11:48:51;1.27;;;0.43;;
70138;SDS011;57507;43.056;0.150;2022-09-03T11:53:59;0.80;;;0.40;;
70138;SDS011;57507;43.056;0.150;2022-09-03T11:56:28;1.38;;;0.40;;
70138;SDS011;57507;43.056;0.150;2022-09-03T11:59:05;0.75;;;0.47;;
70138;SDS011;57507;43.056;0.150;2022-09-03T12:01:47;0.73;;;0.50;;
70138;SDS011;57507;43.056;0.150;2022-09-03T12:04:16;0.70;;;0.50;;
70138;SDS011;57507;43.056;0.150;2022-09-03T12:09:41;0.82;;;0.50;;
70138;SDS011;57507;43.056;0.150;2022-09-03T12:12:16;1.33;;;0.30;;
70138;SDS011;57507;43.056;0.150;2022-09-03T12:14:50;2.53;;;0.40;;
70138;SDS011;57507;43.056;0.150;2022-09-03T12:17:24;0.77;;;0.40;;
70138;SDS011;57507;43.056;0.150;2022-09-03T12:19:54;0.65;;;0.40;;
70138;SDS011;57507;43.056;0.150;2022-09-03T12:22:22;0.82;;;0.40;;
70138;SDS011;57507;43.056;0.150;2022-09-03T12:24:49;0.40;;;0.30;;
70138;SDS011;57507;43.056;0.150;2022-09-03T12:29:58;1.42;;;0.55;;
70138;SDS011;57507;43.056;0.150;2022-09-03T12:32:30;0.63;;;0.47;;
70138;SDS011;57507;43.056;0.150;2022-09-03T12:35:11;0.82;;;0.43;;
70138;SDS011;57507;43.056;0.150;2022-09-03T12:37:38;2.63;;;0.50;;
70138;SDS011;57507;43.056;0.150;2022-09-03T12:40:14;0.47;;;0.38;;
70138;SDS011;57507;43.056;0.150;2022-09-03T12:42:41;1.05;;;0.60;;
70138;SDS011;57507;43.056;0.150;2022-09-03T12:45:08;0.63;;;0.40;;
70138;SDS011;57507;43.056;0.150;2022-09-03T12:47:39;0.70;;;0.40;;
70138;SDS011;57507;43.056;0.150;2022-09-03T12:50:13;1.08;;;0.40;;
70138;SDS011;57507;43.056;0.150;2022-09-03T12:57:43;0.43;;;0.35;;
70138;SDS011;57507;43.056;0.150;2022-09-03T13:00:12;0.52;;;0.30;;
70138;SDS011;57507;43.056;0.150;2022-09-03T13:02:48;1.85;;;0.50;;
70138;SDS011;57507;43.056;0.150;2022-09-03T13:05:18;0.80;;;0.40;;
70138;SDS011;57507;43.056;0.150;2022-09-03T13:07:49;1.75;;;0.45;;
70138;SDS011;57507;43.056;0.150;2022-09-03T13:10:23;1.05;;;0.40;;
70138;SDS011;57507;43.056;0.150;2022-09-03T13:12:50;0.65;;;0.30;;
70138;SDS011;57507;43.056;0.150;2022-09-03T13:15:18;1.00;;;0.40;;
70138;SDS011;57507;43.056;0.150;2022-09-03T13:20:33;0.50;;;0.40;;
70138;SDS011;57507;43.056;0.150;2022-09-03T13:25:40;1.48;;;0.40;;
70138;SDS011;57507;43.056;0.150;2022-09-03T13:28:15;1.75;;;0.52;;
70138;SDS011;57507;43.056;0.150;2022-09-03T13:30:54;0.90;;;0.50;;
70138;SDS011;57507;43.056;0.150;2022-09-03T13:33:31;0.40;;;0.30;;
70138;SDS011;57507;43.056;0.150;2022-09-03T13:38:42;0.65;;;0.35;;
70138;SDS011;57507;43.056;0.150;2022-09-03T13:41:13;2.10;;;0.50;;
70138;SDS011;57507;43.056;0.150;2022-09-03T13:43:52;1.52;;;0.55;;
70138;SDS011;57507;43.056;0.150;2022-09-03T13:46:24;1.10;;;0.50;;
70138;SDS011;57507;43.056;0.150;2022-09-03T13:48:58;0.77;;;0.50;;
70138;SDS011;57507;43.056;0.150;2022-09-03T13:51:48;1.75;;;0.40;;
70138;SDS011;57507;43.056;0.150;2022-09-03T13:54:25;0.82;;;0.30;;
70138;SDS011;57507;43.056;0.150;2022-09-03T13:56:58;2.22;;;0.50;;
70138;SDS011;57507;43.056;0.150;2022-09-03T13:59:28;0.90;;;0.50;;
70138;SDS011;57507;43.056;0.150;2022-09-03T14:04:52;1.73;;;0.55;;
70138;SDS011;57507;43.056;0.150;2022-09-03T14:07:23;1.98;;;0.50;;
70138;SDS011;57507;43.056;0.150;2022-09-03T14:15:06;1.40;;;0.50;;
70138;SDS011;57507;43.056;0.150;2022-09-03T14:25:09;0.70;;;0.40;;
70138;SDS011;57507;43.056;0.150;2022-09-03T14:27:37;0.77;;;0.50;;
70138;SDS011;57507;43.056;0.150;2022-09-03T14:30:05;1.20;;;0.43;;
70138;SDS011;57507;43.056;0.150;2022-09-03T14:32:45;0.68;;;0.55;;
70138;SDS011;57507;43.056;0.150;2022-09-03T14:40:14;1.15;;;0.50;;
70138;SDS011;57507;43.056;0.150;2022-09-03T14:47:46;1.33;;;0.40;;
70138;SDS011;57507;43.056;0.150;2022-09-03T14:53:20;1.25;;;0.40;;
70138;SDS011;57507;43.056;0.150;2022-09-03T15:00:59;0.70;;;0.55;;
70138;SDS011;57507;43.056;0.150;2022-09-03T15:11:24;0.47;;;0.38;;
70138;SDS011;57507;43.056;0.150;2022-09-03T15:26:58;0.95;;;0.43;;
70138;SDS011;57507;43.056;0.150;2022-09-03T15:37:29;1.08;;;0.60;;
70138;SDS011;57507;43.056;0.150;2022-09-03T15:42:30;0.73;;;0.40;;
70138;SDS011;57507;43.056;0.150;2022-09-03T15:50:23;0.60;;;0.45;;
70138;SDS011;57507;43.056;0.150;2022-09-03T15:55:37;1.48;;;0.50;;
70138;SDS011;57507;43.056;0.150;2022-09-03T16:00:44;1.17;;;0.45;;
70138;SDS011;57507;43.056;0.150;2022-09-03T16:03:15;2.03;;;0.55;;
70138;SDS011;57507;43.056;0.150;2022-09-03T16:08:42;0.98;;;0.47;;
70138;SDS011;57507;43.056;0.150;2022-09-03T16:16:10;1.77;;;0.60;;
70138;SDS011;57507;43.056;0.150;2022-09-03T16:21:31;1.67;;;0.60;;
70138;SDS011;57507;43.056;0.150;2022-09-03T16:29:13;1.27;;;0.55;;
70138;SDS011;57507;43.056;0.150;2022-09-03T16:36:51;1.23;;;0.50;;
70138;SDS011;57507;43.056;0.150;2022-09-03T17:05:13;2.63;;;0.80;;
70138;SDS011;57507;43.056;0.150;2022-09-03T17:12:47;0.75;;;0.50;;
70138;SDS011;57507;43.056;0.150;2022-09-03T17:20:41;1.10;;;0.70;;
70138;SDS011;57507;43.056;0.150;2022-09-03T17:23:18;1.83;;;0.60;;
70138;SDS011;57507;43.056;0.150;2022-09-03T17:25:53;0.77;;;0.50;;
70138;SDS011;57507;43.056;0.150;2022-09-03T17:28:27;1.30;;;0.95;;
70138;SDS011;57507;43.056;0.150;2022-09-03T17:38:42;1.75;;;0.93;;
70138;SDS011;57507;43.056;0.150;2022-09-03T17:44:04;0.77;;;0.68;;
70138;SDS011;57507;43.056;0.150;2022-09-03T17:49:17;4.20;;;0.90;;
70138;SDS011;57507;43.056;0.150;2022-09-03T17:51:47;2.20;;;0.80;;
70138;SDS011;57507;43.056;0.150;2022-09-03T17:57:20;2.10;;;0.65;;
70138;SDS011;57507;43.056;0.150;2022-09-03T18:02:38;2.67;;;0.90;;
70138;SDS011;57507;43.056;0.150;2022-09-03T18:05:16;0.80;;;0.52;;
70138;SDS011;57507;43.056;0.150;2022-09-03T18:13:02;5.50;;;0.60;;
70138;SDS011;57507;43.056;0.150;2022-09-03T18:15:51;2.50;;;1.05;;
70138;SDS011;57507;43.056;0.150;2022-09-03T18:18:29;1.52;;;0.52;;
70138;SDS011;57507;43.056;0.150;2022-09-03T18:20:57;3.65;;;0.93;;
70138;SDS011;57507;43.056;0.150;2022-09-03T18:27:32;4.65;;;1.60;;
70138;SDS011;57507;43.056;0.150;2022-09-03T18:30:03;6.13;;;1.50;;
70138;SDS011;57507;43.056;0.150;2022-09-03T18:32:49;5.53;;;1.38;;
70138;SDS011;57507;43.056;0.150;2022-09-03T18:35:34;3.10;;;1.00;;
70138;SDS011;57507;43.056;0.150;2022-09-03T18:38:26;3.95;;;1.17;;
70138;SDS011;57507;43.056;0.150;2022-09-03T18:41:20;2.78;;;1.08;;
70138;SDS011;57507;43.056;0.150;2022-09-03T18:47:08;1.83;;;0.82;;
70138;SDS011;57507;43.056;0.150;2022-09-03T18:50:00;1.88;;;0.80;;
70138;SDS011;57507;43.056;0.150;2022-09-03T18:53:10;2.72;;;0.95;;
70138;SDS011;57507;43.056;0.150;2022-09-03T18:56:03;3.33;;;1.30;;
70138;SDS011;57507;43.056;0.150;2022-09-03T19:01:55;1.85;;;0.73;;
70138;SDS011;57507;43.056;0.150;2022-09-03T19:04:53;2.40;;;0.85;;
70138;SDS011;57507;43.056;0.150;2022-09-03T19:10:38;1.63;;;0.98;;
70138;SDS011;57507;43.056;0.150;2022-09-03T19:13:30;1.80;;;0.77;;
70138;SDS011;57507;43.056;0.150;2022-09-03T19:16:20;1.80;;;0.73;;
70138;SDS011;57507;43.056;0.150;2022-09-03T19:22:10;2.20;;;0.90;;
70138;SDS011;57507;43.056;0.150;2022-09-03T19:25:07;2.40;;;0.80;;
70138;SDS011;57507;43.056;0.150;2022-09-03T19:33:36;1.75;;;0.70;;
70138;SDS011;57507;43.056;0.150;2022-09-03T19:36:32;3.38;;;1.15;;
70138;SDS011;57507;43.056;0.150;2022-09-03T19:39:41;2.03;;;0.73;;
70138;SDS011;57507;43.056;0.150;2022-09-03T19:48:05;1.10;;;0.93;;
70138;SDS011;57507;43.056;0.150;2022-09-03T19:50:59;0.70;;;0.60;;
70138;SDS011;57507;43.056;0.150;2022-09-03T19:53:47;1.67;;;0.90;;
70138;SDS011;57507;43.056;0.150;2022-09-03T19:56:32;2.63;;;0.80;;
70138;SDS011;57507;43.056;0.150;2022-09-03T19:59:19;1.48;;;0.90;;
70138;SDS011;57507;43.056;0.150;2022-09-03T20:02:04;1.85;;;0.77;;
70138;SDS011;57507;43.056;0.150;2022-09-03T20:07:34;0.85;;;0.68;;
70138;SDS011;57507;43.056;0.150;2022-09-03T20:10:20;1.15;;;0.80;;
70138;SDS011;57507;43.056;0.150;2022-09-03T20:15:41;2.17;;;1.10;;
70138;SDS011;57507;43.056;0.150;2022-09-03T20:18:34;2.15;;;0.70;;
70138;SDS011;57507;43.056;0.150;2022-09-03T20:41:54;1.17;;;0.77;;
70138;SDS011;57507;43.056;0.150;2022-09-03T20:44:38;2.20;;;0.80;;
70138;SDS011;57507;43.056;0.150;2022-09-03T20:49:48;1.52;;;0.70;;
70138;SDS011;57507;43.056;0.150;2022-09-03T20:57:35;0.60;;;0.60;;
70138;SDS011;57507;43.056;0.150;2022-09-03T21:00:10;1.50;;;0.90;;
70138;SDS011;57507;43.056;0.150;2022-09-03T21:05:13;1.13;;;0.95;;
70138;SDS011;57507;43.056;0.150;2022-09-03T21:07:50;1.60;;;0.88;;
70138;SDS011;57507;43.056;0.150;2022-09-03T21:17:58;1.40;;;0.82;;
70138;SDS011;57507;43.056;0.150;2022-09-03T21:25:36;0.93;;;0.70;;
70138;SDS011;57507;43.056;0.150;2022-09-03T21:28:10;1.00;;;0.90;;
70138;SDS011;57507;43.056;0.150;2022-09-03T21:30:37;1.40;;;0.80;;
70138;SDS011;57507;43.056;0.150;2022-09-03T21:33:10;1.77;;;0.73;;